Hovedside
METAR-TAF:

METAR-TAF

Lufthavner :

Damaskus, Syria

breddegrad: 33-25N, lengdegrad: 036-31E, høyde over havet: 608 m

Gjeldene værobservasjon

Denne rapporten ble laget for 1 time og 43 minutter siden, klokken 09:00 UTC
Vind 5 kt fra Sørøst
Temperatur 34°C
Luftfuktighet 13%
Trykk 1013 hPa
Sikt 10 km eller mer
ingen skyer under 1500 m og ingen bygeskyer

METAR: OSDI 200900Z 13005KT CAVOK 34/02 Q1013

Tid: 13:43 (10:43 UTC)

Varsel

Varsel gyldig fra 20. klokken 06 UTC til 21. klokken 12 UTC
Vind 20 kt fra Sørvest
Sikt: 8000 m
Få skyer i en høyde av 3000 ft
Midlertidig
fra 20. klokken 18 UTC til 21. klokken 06 UTC
Vind 15 kt fra Vest
Sikt 10 km eller mer
ingen skyer under 1500 m og ingen bygeskyer

TAF: OSDI 2006/2112 22020KT 8000 FEW030 TEMPO 2018/2106 26015KT CAVOK

Værobservasjoner og værvarsel for over 4000 flyplasser (METAR- og TAF-rapporter).

Tilgjengelige stasjoner er representert av de røde og gule prikkene på kartet.

Hold musepekeren over prikken for å se navnet på stasjonen.

Klikk så for å se værobservasjoner og -varsler.

For å forandre kartet kan du klikke på den grønne knappen med svart kryss for å zoome inn, på den grønne knappen med strek for å zoome ut, eller på de grønne pilene for å se tilstøtende kart.


METAR-TAF: